Time;durP1;ratioP1;P1;durP2;ratioP2;P2;SDS_P1;SDS_P2;PMS_P1;PMS_P2;Temp;Humidity;BMP_temperature;BMP_pressure;BME280_temperature;BME280_humidity;BME280_pressure;Samples;Min_cycle;Max_cycle;Signal;HPM_P1;HPM_P2
2024/03/04 00:03:38;;;;;;;22.00;15.30;;;;;;;7.38;78.03;97836.06;226739;1250;24390;-78
2024/03/04 00:08:42;;;;;;;28.10;17.60;;;;;;;7.37;77.79;97839.16;226837;1260;22527;-78
2024/03/04 00:13:44;;;;;;;26.20;17.90;;;;;;;7.31;78.46;97837.70;226896;1272;22645;-78
2024/03/04 00:18:47;;;;;;;26.90;19.60;;;;;;;7.25;78.34;97836.80;226832;1266;22535;-78
2024/03/04 00:23:49;;;;;;;33.20;21.60;;;;;;;7.11;78.38;97837.10;226865;1268;22549;-78
2024/03/04 00:28:53;;;;;;;35.00;22.80;;;;;;;6.97;78.43;97835.03;226745;1273;22656;-79
2024/03/04 00:33:55;;;;;;;32.10;21.50;;;;;;;6.86;79.41;97829.95;226860;1273;22538;-79
2024/03/04 00:38:57;;;;;;;38.40;23.30;;;;;;;6.76;79.66;97830.40;226841;1272;24381;-79
2024/03/04 00:43:59;;;;;;;32.80;22.10;;;;;;;6.68;79.89;97831.73;226931;1270;22554;-78
2024/03/04 00:49:01;;;;;;;37.30;24.20;;;;;;;6.64;80.72;97833.08;226887;1273;22521;-78
2024/03/04 00:54:03;;;;;;;37.10;23.80;;;;;;;6.62;80.30;97830.38;226682;1267;231781;-77
2024/03/04 00:59:07;;;;;;;37.90;25.90;;;;;;;6.58;81.01;97829.84;226886;1272;23006;-78
2024/03/04 01:04:09;;;;;;;36.20;26.00;;;;;;;6.54;80.76;97830.88;226853;1273;26090;-78
2024/03/04 01:09:11;;;;;;;37.60;24.90;;;;;;;6.50;81.23;97832.91;226861;1273;22533;-78
2024/03/04 01:14:13;;;;;;;35.60;25.60;;;;;;;6.46;81.43;97830.05;226874;1266;22583;-79
2024/03/04 01:19:19;;;;;;;37.20;25.10;;;;;;;6.41;81.46;97829.33;226908;1269;22523;-78
2024/03/04 01:24:21;;;;;;;33.30;23.40;;;;;;;6.32;81.47;97831.17;226927;1269;22545;-78
2024/03/04 01:29:23;;;;;;;28.20;20.10;;;;;;;6.25;81.65;97830.31;226848;1271;22629;-78
2024/03/04 01:34:25;;;;;;;30.40;22.50;;;;;;;6.18;81.90;97826.58;226866;1270;23301;-78
2024/03/04 01:39:27;;;;;;;34.60;22.80;;;;;;;6.12;81.56;97826.68;226970;1272;22527;-78
2024/03/04 01:44:33;;;;;;;33.60;22.70;;;;;;;6.05;81.92;97824.88;226896;1271;22642;-79
2024/03/04 01:49:37;;;;;;;32.60;23.30;;;;;;;5.98;81.95;97824.52;226845;1271;22631;-78
2024/03/04 01:54:44;;;;;;;32.20;22.30;;;;;;;5.93;82.20;97827.91;226835;1268;22537;-78
2024/03/04 01:59:47;;;;;;;30.60;20.60;;;;;;;5.90;82.38;97823.52;226823;1270;22594;-78
2024/03/04 02:04:49;;;;;;;33.20;21.90;;;;;;;5.91;82.65;97818.52;226896;1270;22530;-78
2024/03/04 02:09:52;;;;;;;30.40;21.90;;;;;;;5.95;82.49;97822.23;226972;1271;22598;-78
2024/03/04 02:14:54;;;;;;;31.40;21.50;;;;;;;5.99;82.63;97823.83;226891;1273;22641;-77
2024/03/04 02:20:03;;;;;;;30.60;21.80;;;;;;;6.04;83.25;97825.02;226793;1273;22527;-77
2024/03/04 02:25:06;;;;;;;33.80;24.50;;;;;;;6.07;83.12;97825.75;226857;1270;22542;-78
2024/03/04 02:30:09;;;;;;;33.30;23.40;;;;;;;6.05;82.99;97829.40;226849;1272;25242;-77
2024/03/04 02:35:12;;;;;;;34.30;23.50;;;;;;;6.04;83.31;97830.48;226928;1273;25220;-78
2024/03/04 02:40:14;;;;;;;29.30;20.60;;;;;;;6.02;83.03;97829.58;226702;1265;22570;-77
2024/03/04 02:45:16;;;;;;;35.60;25.50;;;;;;;5.99;83.01;97826.81;226824;1270;22553;-78
2024/03/04 02:50:18;;;;;;;35.90;26.10;;;;;;;5.95;83.10;97828.63;226858;1271;22534;-78
2024/03/04 02:55:20;;;;;;;37.70;26.40;;;;;;;5.89;83.23;97827.78;226750;1269;22611;-77
2024/03/04 03:00:22;;;;;;;39.60;27.60;;;;;;;5.85;83.30;97829.02;226968;1272;22538;-78
2024/03/04 03:05:24;;;;;;;41.20;28.30;;;;;;;5.87;83.63;97827.20;226906;1268;22562;-78
2024/03/04 03:10:28;;;;;;;43.00;29.20;;;;;;;5.90;83.94;97827.74;226731;1273;24385;-78
2024/03/04 03:15:30;;;;;;;39.70;27.10;;;;;;;5.94;83.75;97827.27;226775;1270;22563;-79
2024/03/04 03:20:32;;;;;;;39.70;27.90;;;;;;;5.98;84.31;97833.41;226825;1268;24290;-78
2024/03/04 03:25:34;;;;;;;41.60;27.90;;;;;;;5.97;83.65;97833.35;226861;1270;22543;-78
2024/03/04 03:30:36;;;;;;;39.20;27.20;;;;;;;5.92;83.74;97831.25;226821;1269;22542;-78
2024/03/04 03:35:38;;;;;;;38.20;26.20;;;;;;;5.86;83.57;97829.92;226840;1271;22569;-78
2024/03/04 03:40:40;;;;;;;39.60;29.00;;;;;;;5.86;84.38;97824.56;226775;1270;25278;-79
2024/03/04 03:45:43;;;;;;;40.20;27.50;;;;;;;5.93;84.35;97824.44;226823;1270;22538;-79
2024/03/04 03:50:46;;;;;;;42.80;29.30;;;;;;;5.95;84.25;97824.02;226757;1271;24276;-79
2024/03/04 03:55:48;;;;;;;41.50;28.30;;;;;;;5.94;84.70;97831.80;226755;1269;22535;-78
2024/03/04 04:00:50;;;;;;;44.50;29.60;;;;;;;5.93;84.54;97834.90;226731;1271;22523;-79
2024/03/04 04:05:52;;;;;;;42.40;29.20;;;;;;;5.91;84.38;97833.86;226728;1270;24407;-79
2024/03/04 04:10:54;;;;;;;41.80;28.00;;;;;;;5.93;84.49;97836.75;226863;1271;22531;-78
2024/03/04 04:15:56;;;;;;;46.10;31.20;;;;;;;5.98;84.81;97837.53;226749;1271;22666;-79
2024/03/04 04:20:59;;;;;;;38.20;26.80;;;;;;;6.02;84.74;97835.38;226836;1271;22544;-80
2024/03/04 04:26:01;;;;;;;43.70;30.20;;;;;;;6.05;84.45;97828.95;226800;1268;22960;-78
2024/03/04 04:31:03;;;;;;;45.90;30.00;;;;;;;6.09;85.24;97829.60;226768;1271;22526;-78
2024/03/04 04:36:06;;;;;;;42.60;27.90;;;;;;;6.14;84.84;97830.27;226766;1270;22460;-78
2024/03/04 04:41:08;;;;;;;44.20;31.20;;;;;;;6.18;84.71;97827.41;226750;1271;22559;-78
2024/03/04 04:46:10;;;;;;;43.50;29.50;;;;;;;6.24;84.85;97828.20;226768;1270;22526;-78
2024/03/04 04:51:12;;;;;;;42.90;30.10;;;;;;;6.25;84.58;97832.73;226775;1269;25244;-78
2024/03/04 04:56:16;;;;;;;39.40;29.30;;;;;;;6.27;84.60;97835.79;226734;1271;22536;-78
2024/03/04 05:01:27;;;;;;;42.50;29.10;;;;;;;6.21;84.14;97837.09;226753;1269;22565;-78
2024/03/04 05:06:30;;;;;;;40.00;29.00;;;;;;;6.10;84.36;97838.13;226703;1270;22535;-78
2024/03/04 05:11:34;;;;;;;39.70;29.20;;;;;;;5.99;84.14;97836.96;226816;1270;22526;-78
2024/03/04 05:16:36;;;;;;;46.00;31.90;;;;;;;5.89;84.16;97833.77;226730;1269;22535;-78
2024/03/04 05:21:38;;;;;;;52.00;34.40;;;;;;;5.83;84.52;97837.80;226727;1269;22550;-79
2024/03/04 05:26:40;;;;;;;45.90;31.50;;;;;;;5.71;84.09;97837.95;226701;1269;24229;-79
2024/03/04 05:31:53;;;;;;;47.60;33.20;;;;;;;5.61;84.54;97839.83;226816;1271;22545;-79
2024/03/04 05:36:55;;;;;;;51.60;36.10;;;;;;;5.59;84.96;97843.45;226802;1268;22625;-79
2024/03/04 05:41:58;;;;;;;47.80;34.70;;;;;;;5.53;84.66;97850.38;226751;1271;22534;-80
2024/03/04 05:47:00;;;;;;;51.90;34.80;;;;;;;5.53;84.72;97853.88;226680;1268;22619;-78
2024/03/04 05:52:03;;;;;;;51.80;34.80;;;;;;;5.55;85.25;97855.20;226788;1273;22571;-79
2024/03/04 05:57:05;;;;;;;56.00;37.40;;;;;;;5.59;85.09;97858.41;226711;1270;22526;-78
2024/03/04 06:02:07;;;;;;;57.40;37.80;;;;;;;5.61;84.93;97858.77;226740;1265;22523;-78
2024/03/04 06:07:09;;;;;;;52.50;37.20;;;;;;;5.64;85.30;97865.36;226842;1273;22592;-79
2024/03/04 06:12:11;;;;;;;53.10;36.20;;;;;;;5.70;85.25;97869.01;226799;1271;22533;-78
2024/03/04 06:17:13;;;;;;;54.50;37.10;;;;;;;5.79;85.81;97875.27;226759;1267;22530;-79
2024/03/04 06:22:16;;;;;;;51.40;37.10;;;;;;;5.87;85.72;97882.09;226714;1270;22550;-79
2024/03/04 06:27:18;;;;;;;51.30;37.30;;;;;;;5.94;85.75;97880.92;226791;1271;25216;-79
2024/03/04 06:32:20;;;;;;;49.50;34.80;;;;;;;6.08;86.24;97881.54;226787;1273;22520;-79
2024/03/04 06:37:22;;;;;;;51.60;37.10;;;;;;;6.23;86.15;97883.32;226616;1271;22574;-79
2024/03/04 06:42:24;;;;;;;49.40;34.30;;;;;;;6.36;86.06;97887.76;226675;1271;22552;-78
2024/03/04 06:47:26;;;;;;;50.90;35.00;;;;;;;6.50;85.97;97888.48;226753;1270;22634;-79
2024/03/04 06:52:28;;;;;;;54.20;37.70;;;;;;;6.68;86.39;97893.73;226521;1251;22571;-77
2024/03/04 06:57:30;;;;;;;52.50;38.30;;;;;;;6.86;86.00;97894.86;226339;1259;22604;-77
2024/03/04 07:02:35;;;;;;;46.50;34.50;;;;;;;7.12;86.52;97888.30;226533;1265;22542;-78
2024/03/04 07:07:37;;;;;;;46.60;33.80;;;;;;;7.34;85.64;97893.10;226543;1262;22539;-76
2024/03/04 07:12:39;;;;;;;47.10;34.30;;;;;;;7.47;85.43;97890.23;226485;1262;22553;-76
2024/03/04 07:17:41;;;;;;;48.70;35.70;;;;;;;7.62;85.19;97889.77;226225;1264;25574;-76
2024/03/04 07:22:43;;;;;;;46.00;33.30;;;;;;;7.76;85.01;97896.80;226329;1262;22549;-76
2024/03/04 07:27:45;;;;;;;44.40;33.30;;;;;;;7.92;85.30;97900.09;226300;1249;22651;-76
2024/03/04 07:32:47;;;;;;;44.90;33.70;;;;;;;8.14;85.18;97904.03;226336;1265;22566;-76
2024/03/04 07:37:49;;;;;;;47.10;34.00;;;;;;;8.51;85.20;97901.09;226350;1266;22523;-76
2024/03/04 07:42:51;;;;;;;48.30;34.70;;;;;;;8.67;84.37;97900.33;226354;1262;25874;-76
2024/03/04 07:47:53;;;;;;;42.80;32.10;;;;;;;8.80;84.14;97900.01;226302;1270;22579;-76
2024/03/04 07:52:55;;;;;;;42.00;31.10;;;;;;;8.97;83.96;97895.23;226292;1259;24765;-75
2024/03/04 07:57:58;;;;;;;36.00;28.50;;;;;;;9.16;84.08;97895.27;226492;1268;22558;-76
2024/03/04 08:03:00;;;;;;;38.30;29.50;;;;;;;9.39;83.87;97897.52;226464;1273;22540;-76
2024/03/04 08:08:02;;;;;;;36.50;28.50;;;;;;;9.60;83.88;97898.41;226434;1271;22525;-79
2024/03/04 08:13:06;;;;;;;35.60;27.00;;;;;;;9.81;83.48;97903.32;226648;1250;24216;-77
2024/03/04 08:18:09;;;;;;;35.40;27.80;;;;;;;10.03;83.41;97906.33;226471;1265;25462;-77
2024/03/04 08:23:11;;;;;;;29.40;23.20;;;;;;;10.27;83.21;97906.79;226434;1250;22557;-77
2024/03/04 08:28:13;;;;;;;29.10;23.40;;;;;;;10.53;82.90;97906.84;226369;1266;22658;-78
2024/03/04 08:33:29;;;;;;;28.80;23.70;;;;;;;10.77;82.38;97899.83;226374;1266;24238;-78
2024/03/04 08:38:31;;;;;;;29.00;22.50;;;;;;;10.98;81.97;97901.74;226363;1262;23250;-78
2024/03/04 08:43:33;;;;;;;27.20;21.50;;;;;;;11.20;81.51;97900.88;226411;1271;22523;-80
2024/03/04 08:48:35;;;;;;;25.90;21.50;;;;;;;11.41;80.99;97908.26;226592;1262;25265;-79
2024/03/04 08:53:37;;;;;;;25.00;20.20;;;;;;;11.63;80.71;97907.81;226551;1270;22530;-79
2024/03/04 08:58:39;;;;;;;25.50;19.30;;;;;;;11.81;80.14;97907.35;226320;1262;23006;-81
2024/03/04 09:03:43;;;;;;;26.50;19.40;;;;;;;12.02;79.93;97906.40;226434;1262;23063;-78
2024/03/04 09:08:48;;;;;;;23.00;17.10;;;;;;;12.24;79.82;97903.08;226470;1262;22535;-78
2024/03/04 09:13:50;;;;;;;19.90;16.10;;;;;;;12.46;79.43;97905.80;226638;1250;22559;-78
2024/03/04 09:18:52;;;;;;;20.70;15.70;;;;;;;12.67;78.68;97901.36;226497;1266;22532;-77
2024/03/04 09:23:54;;;;;;;7.20;4.60;;;;;;;12.87;78.31;97896.29;226411;1266;22559;-78
2024/03/04 09:28:56;;;;;;;6.60;3.20;;;;;;;13.08;77.48;97896.65;226524;1273;22533;-77
2024/03/04 09:33:58;;;;;;;4.40;3.10;;;;;;;13.30;76.77;97895.23;226584;1258;22539;-76
2024/03/04 09:39:01;;;;;;;4.80;4.00;;;;;;;13.48;75.80;97899.90;226557;1271;22549;-78
2024/03/04 09:44:05;;;;;;;6.50;4.70;;;;;;;13.56;74.21;97898.95;226493;1262;22540;-78
2024/03/04 09:49:09;;;;;;;5.70;4.40;;;;;;;13.67;73.82;97901.18;226484;1273;27138;-78
2024/03/04 09:54:14;;;;;;;6.20;4.50;;;;;;;13.84;73.83;97895.41;226496;1267;22532;-78
2024/03/04 09:59:16;;;;;;;7.20;5.70;;;;;;;14.04;73.30;97895.98;226621;1266;22533;-81
2024/03/04 10:04:21;;;;;;;10.60;5.70;;;;;;;14.20;72.58;97898.71;226479;1257;22538;-78
2024/03/04 10:09:23;;;;;;;8.30;5.20;;;;;;;14.39;72.27;97902.28;226534;1258;22554;-78
2024/03/04 10:14:25;;;;;;;9.10;6.10;;;;;;;14.63;71.71;97901.67;226444;1259;23009;-80
2024/03/04 10:19:27;;;;;;;5.70;4.40;;;;;;;14.87;71.31;97898.11;226551;1265;22542;-79
2024/03/04 10:24:29;;;;;;;8.80;4.20;;;;;;;15.08;69.15;97896.67;226516;1267;22541;-79
2024/03/04 10:29:31;;;;;;;8.10;4.40;;;;;;;15.28;69.28;97890.23;226350;1263;22542;-79
2024/03/04 10:34:33;;;;;;;5.70;4.00;;;;;;;15.58;69.22;97887.29;226336;1256;22587;-79
2024/03/04 10:39:36;;;;;;;8.70;4.30;;;;;;;15.86;68.56;97879.59;226450;1273;22625;-79
2024/03/04 10:44:38;;;;;;;7.60;3.50;;;;;;;16.06;68.20;97878.23;226425;1272;22665;-77
2024/03/04 10:49:42;;;;;;;6.90;3.50;;;;;;;16.20;66.95;97875.08;226342;1265;22536;-77
2024/03/04 10:54:48;;;;;;;7.30;3.20;;;;;;;16.22;65.97;97879.35;226444;1266;22542;-84
2024/03/04 10:59:56;;;;;;;6.20;2.90;;;;;;;16.05;64.55;97874.00;226475;1266;22540;-83
2024/03/04 11:05:01;;;;;;;4.60;2.70;;;;;;;15.93;64.69;97872.27;226274;1269;22587;-79
2024/03/04 11:10:15;;;;;;;3.80;2.10;;;;;;;15.88;64.50;97865.30;226371;1262;22534;-80
2024/03/04 11:15:24;;;;;;;5.60;2.30;;;;;;;15.88;63.61;97864.70;226299;1271;22560;-80
2024/03/04 11:20:26;;;;;;;4.90;2.30;;;;;;;16.00;63.67;97860.67;226302;1270;22552;-80
2024/03/04 11:25:29;;;;;;;6.30;2.20;;;;;;;16.24;62.54;97857.21;226324;1255;22610;-79
2024/03/04 11:30:33;;;;;;;3.60;2.30;;;;;;;16.40;61.95;97855.66;226278;1273;22977;-79
2024/03/04 11:35:35;;;;;;;4.70;2.30;;;;;;;16.67;61.86;97854.38;226420;1266;22576;-78
2024/03/04 11:40:37;;;;;;;5.30;2.30;;;;;;;17.01;62.17;97851.77;226322;1255;23048;-79
2024/03/04 11:45:42;;;;;;;5.30;2.90;;;;;;;17.15;61.38;97858.96;226351;1257;22562;-79
2024/03/04 11:50:46;;;;;;;4.00;2.60;;;;;;;17.09;61.09;97855.31;226357;1256;23424;-82
2024/03/04 11:55:49;;;;;;;3.60;2.40;;;;;;;17.14;61.08;97854.89;226549;1266;23014;-84
2024/03/04 12:00:52;;;;;;;4.60;2.50;;;;;;;17.18;61.06;97849.17;226545;1268;22566;-82
2024/03/04 12:06:12;;;;;;;3.50;2.20;;;;;;;17.14;60.83;97839.69;226596;1272;22515;-85
2024/03/04 12:11:15;;;;;;;5.50;2.50;;;;;;;16.98;60.27;97838.09;226515;1262;22694;-87
2024/03/04 12:16:18;;;;;;;3.90;1.90;;;;;;;16.74;60.10;97835.27;226493;1262;22556;-87
2024/03/04 12:21:20;;;;;;;7.60;2.10;;;;;;;16.60;60.47;97830.40;226640;1273;22538;-86
2024/03/04 12:26:22;;;;;;;9.90;2.10;;;;;;;16.61;61.23;97827.64;226508;1270;22519;-85
2024/03/04 12:31:25;;;;;;;3.20;1.90;;;;;;;16.61;61.03;97823.11;226616;1256;22564;-85
2024/03/04 12:36:28;;;;;;;3.30;1.90;;;;;;;16.59;60.78;97820.90;226474;1265;22553;-85
2024/03/04 12:41:30;;;;;;;6.10;1.90;;;;;;;16.65;60.81;97815.16;226441;1271;25271;-85
2024/03/04 12:46:37;;;;;;;9.00;2.20;;;;;;;16.78;59.09;97813.17;226391;1266;22544;-85
2024/03/04 12:51:40;;;;;;;5.00;2.10;;;;;;;16.97;58.14;97811.02;226246;1273;215848;-84
2024/03/04 12:56:43;;;;;;;6.10;1.90;;;;;;;16.90;57.67;97815.33;226474;1265;22659;-84
2024/03/04 13:01:45;;;;;;;4.00;1.80;;;;;;;16.93;57.72;97810.33;226525;1270;22538;-84
2024/03/04 13:06:48;;;;;;;4.00;1.70;;;;;;;16.97;57.83;97803.64;226686;1262;22628;-84
2024/03/04 13:11:52;;;;;;;3.30;2.10;;;;;;;17.01;57.67;97805.61;226617;1256;22604;-85
2024/03/04 13:16:55;;;;;;;4.80;1.70;;;;;;;16.95;57.82;97797.98;226545;1268;23094;-78
2024/03/04 13:22:00;;;;;;;4.60;1.80;;;;;;;17.06;58.73;97797.96;226738;1270;25416;-81
2024/03/04 13:27:04;;;;;;;2.50;1.50;;;;;;;17.34;58.70;97795.36;226588;1257;22697;-83
2024/03/04 13:32:06;;;;;;;2.70;1.50;;;;;;;17.61;57.75;97792.42;226577;1273;25284;-83
2024/03/04 13:37:09;;;;;;;2.80;1.40;;;;;;;17.74;56.91;97794.45;226498;1257;25433;-83
2024/03/04 13:42:11;;;;;;;5.50;1.50;;;;;;;17.80;56.59;97794.42;226487;1265;22562;-84
2024/03/04 13:47:13;;;;;;;2.60;1.40;;;;;;;17.80;56.04;97793.36;226423;1254;22977;-82
2024/03/04 13:52:16;;;;;;;2.50;1.60;;;;;;;17.72;55.56;97796.58;226352;1261;22532;-83
2024/03/04 13:57:18;;;;;;;3.00;1.60;;;;;;;17.55;55.03;97791.89;226562;1270;22535;-83
2024/03/04 14:02:20;;;;;;;6.10;1.80;;;;;;;17.44;55.21;97794.33;226378;1265;22532;-84
2024/03/04 14:07:22;;;;;;;2.90;1.40;;;;;;;17.33;55.03;97796.86;226298;1273;22559;-82
2024/03/04 14:12:24;;;;;;;3.20;1.60;;;;;;;17.16;54.27;97799.44;226294;1261;22542;-83
2024/03/04 14:17:26;;;;;;;2.50;1.70;;;;;;;16.96;55.10;97793.02;226380;1269;23350;-83
2024/03/04 14:22:30;;;;;;;4.10;1.70;;;;;;;16.84;55.19;97795.79;226360;1251;22951;-84
2024/03/04 14:27:32;;;;;;;3.70;1.80;;;;;;;16.73;54.97;97798.23;226413;1263;24769;-84
2024/03/04 14:32:34;;;;;;;3.70;1.50;;;;;;;16.56;55.66;97797.49;226113;1263;22564;-84
2024/03/04 14:37:37;;;;;;;4.00;1.70;;;;;;;16.35;55.38;97795.08;226036;1253;22527;-83
2024/03/04 14:42:39;;;;;;;3.50;1.90;;;;;;;16.19;55.89;97791.14;225936;1271;22532;-85
2024/03/04 14:47:41;;;;;;;5.30;1.90;;;;;;;16.15;56.45;97793.30;225780;1265;26323;-79
2024/03/04 14:52:43;;;;;;;3.70;1.70;;;;;;;16.14;56.79;97788.48;225840;1266;22546;-79
2024/03/04 14:57:46;;;;;;;3.10;1.80;;;;;;;16.17;56.93;97792.79;226164;1266;22556;-84
2024/03/04 15:02:48;;;;;;;4.80;1.60;;;;;;;16.11;56.68;97796.06;226243;1271;22516;-84
2024/03/04 15:07:50;;;;;;;2.90;2.00;;;;;;;16.06;56.73;97798.23;226459;1272;22538;-84
2024/03/04 15:12:52;;;;;;;4.60;1.70;;;;;;;16.02;56.40;97808.52;226543;1273;22543;-84
2024/03/04 15:17:57;;;;;;;4.10;2.10;;;;;;;15.97;56.97;97809.69;226564;1270;22562;-84
2024/03/04 15:23:16;;;;;;;4.40;1.90;;;;;;;15.83;56.97;97811.52;226585;1273;24254;-84
2024/03/04 15:28:18;;;;;;;4.10;2.00;;;;;;;15.72;57.71;97813.17;226813;1270;22538;-86
2024/03/04 15:33:20;;;;;;;3.80;1.70;;;;;;;15.62;57.88;97815.31;226878;1271;22544;-84
2024/03/04 15:38:24;;;;;;;8.40;4.70;;;;;;;15.49;57.76;97815.98;226900;1273;22570;-85
2024/03/04 15:43:26;;;;;;;2.90;1.90;;;;;;;15.36;57.94;97822.38;226758;1273;22554;-85
2024/03/04 15:48:28;;;;;;;6.40;2.00;;;;;;;15.25;58.15;97823.23;226898;1273;22531;-85
2024/03/04 15:53:33;;;;;;;4.00;2.20;;;;;;;15.14;58.17;97823.84;226897;1273;22943;-84
2024/03/04 15:58:36;;;;;;;5.10;2.20;;;;;;;15.00;58.45;97832.10;226835;1273;22551;-85
2024/03/04 16:03:38;;;;;;;6.80;2.90;;;;;;;14.81;58.27;97834.27;226868;1271;22530;-85
2024/03/04 16:08:41;;;;;;;3.10;2.20;;;;;;;14.59;58.74;97840.61;226765;1273;22530;-85
2024/03/04 16:13:44;;;;;;;5.90;2.50;;;;;;;14.37;58.63;97841.90;226825;1273;22557;-86
2024/03/04 16:18:46;;;;;;;4.70;2.60;;;;;;;14.14;59.25;97846.38;226917;1273;22583;-86
2024/03/04 16:23:51;;;;;;;6.70;2.70;;;;;;;13.91;59.50;97852.23;226938;1270;22541;-84
2024/03/04 16:28:54;;;;;;;4.70;3.00;;;;;;;13.67;59.80;97852.42;226967;1269;22554;-86
2024/03/04 16:33:58;;;;;;;4.40;3.00;;;;;;;13.44;59.88;97855.34;226993;1273;24311;-84
2024/03/04 16:39:00;;;;;;;6.20;3.60;;;;;;;13.23;60.50;97855.21;226942;1273;22561;-86
2024/03/04 16:44:04;;;;;;;6.40;3.10;;;;;;;13.05;60.73;97858.05;226805;1273;22530;-86
2024/03/04 16:49:08;;;;;;;5.60;3.20;;;;;;;12.85;61.30;97862.51;226806;1270;22541;-85
2024/03/04 16:54:10;;;;;;;6.90;4.70;;;;;;;12.65;61.76;97865.27;226869;1273;22544;-85
2024/03/04 16:59:13;;;;;;;13.30;8.90;;;;;;;12.45;62.84;97867.27;227053;1272;22545;-86
2024/03/04 17:04:15;;;;;;;13.50;10.70;;;;;;;12.24;63.95;97870.43;226948;1273;23069;-86
2024/03/04 17:09:18;;;;;;;14.90;10.90;;;;;;;12.05;64.95;97870.81;227044;1273;22531;-85
2024/03/04 17:14:20;;;;;;;18.80;12.80;;;;;;;11.87;65.64;97877.73;226932;1273;23171;-85
2024/03/04 17:19:24;;;;;;;17.70;13.10;;;;;;;11.75;66.35;97886.43;226908;1254;22554;-85
2024/03/04 17:24:26;;;;;;;21.80;15.40;;;;;;;11.63;67.36;97890.71;226968;1273;25068;-85
2024/03/04 17:29:28;;;;;;;25.30;17.40;;;;;;;11.54;68.15;97884.36;226997;1273;22534;-86
2024/03/04 17:34:35;;;;;;;24.70;17.70;;;;;;;11.45;68.78;97884.58;226886;1273;22533;-86
2024/03/04 17:39:37;;;;;;;30.70;21.60;;;;;;;11.35;69.58;97891.66;226897;1273;22538;-85
2024/03/04 17:44:40;;;;;;;30.40;22.50;;;;;;;11.25;70.28;97893.45;227003;1270;22627;-85
2024/03/04 17:49:49;;;;;;;36.60;27.00;;;;;;;11.14;70.73;97895.19;226901;1272;24314;-86
2024/03/04 17:54:52;;;;;;;38.50;27.60;;;;;;;11.03;71.17;97909.02;227009;1269;24378;-85
2024/03/04 17:59:54;;;;;;;43.00;31.70;;;;;;;10.92;71.78;97910.93;226953;1272;22572;-84
2024/03/04 18:04:57;;;;;;;51.30;36.20;;;;;;;10.83;72.11;97915.41;226978;1268;22523;-85
2024/03/04 18:09:59;;;;;;;53.30;38.30;;;;;;;10.75;72.54;97917.19;226966;1273;22588;-85
2024/03/04 18:15:03;;;;;;;57.60;39.40;;;;;;;10.67;73.11;97921.09;226775;1250;22566;-85
2024/03/04 18:20:08;;;;;;;55.50;37.60;;;;;;;10.60;73.45;97926.23;226814;1273;22534;-85
2024/03/04 18:25:11;;;;;;;56.90;39.90;;;;;;;10.55;73.93;97935.83;226876;1264;22557;-85
2024/03/04 18:30:15;;;;;;;52.40;38.00;;;;;;;10.50;74.30;97936.35;226994;1250;24273;-85
2024/03/04 18:35:18;;;;;;;63.80;41.40;;;;;;;10.45;74.53;97945.09;226923;1273;23035;-85
2024/03/04 18:40:21;;;;;;;63.70;42.90;;;;;;;10.39;75.08;97952.79;226964;1273;24237;-84
2024/03/04 18:45:24;;;;;;;58.80;42.80;;;;;;;10.35;75.49;97959.30;227009;1260;22861;-84
2024/03/04 18:50:27;;;;;;;59.00;44.30;;;;;;;10.33;75.67;97953.45;227043;1273;22547;-84
2024/03/04 18:55:29;;;;;;;66.50;44.10;;;;;;;10.31;75.85;97957.84;226995;1273;22534;-85
2024/03/04 19:00:32;;;;;;;70.70;47.30;;;;;;;10.30;76.24;97955.20;226883;1273;22540;-86
2024/03/04 19:05:34;;;;;;;71.30;49.50;;;;;;;10.28;76.47;97952.11;226991;1270;23638;-86
2024/03/04 19:10:36;;;;;;;68.50;46.00;;;;;;;10.26;76.58;97956.54;226925;1270;22546;-86
2024/03/04 19:15:41;;;;;;;70.40;46.20;;;;;;;10.22;76.71;97967.81;226751;1273;25242;-85
2024/03/04 19:20:44;;;;;;;80.40;54.00;;;;;;;10.17;77.03;97971.69;226769;1273;22468;-86
2024/03/04 19:25:46;;;;;;;67.40;46.50;;;;;;;10.10;77.26;97975.75;226891;1273;22533;-85
2024/03/04 19:30:49;;;;;;;62.20;44.30;;;;;;;10.02;77.41;97976.69;226768;1273;25364;-85
2024/03/04 19:35:51;;;;;;;65.90;45.00;;;;;;;9.95;77.63;97977.46;226815;1268;22529;-85
2024/03/04 19:40:53;;;;;;;68.10;48.00;;;;;;;9.87;77.93;97987.05;226906;1261;22553;-85
2024/03/04 19:45:56;;;;;;;70.30;49.20;;;;;;;9.80;78.33;97983.99;226890;1264;22571;-85
2024/03/04 19:50:58;;;;;;;72.60;49.90;;;;;;;9.72;78.48;97983.64;226968;1268;22474;-85
2024/03/04 19:56:02;;;;;;;65.20;44.90;;;;;;;9.66;78.77;97987.30;226895;1273;22537;-85
2024/03/04 20:01:18;;;;;;;57.30;42.90;;;;;;;9.58;78.78;97984.64;226941;1273;22681;-86
2024/03/04 20:06:20;;;;;;;60.90;42.90;;;;;;;9.51;79.18;97990.86;226914;1273;22568;-86
2024/03/04 20:11:25;;;;;;;57.20;41.70;;;;;;;9.46;79.38;97990.84;226804;1273;22561;-85
2024/03/04 20:16:28;;;;;;;53.00;40.80;;;;;;;9.43;79.68;97994.59;226991;1273;22545;-86
2024/03/04 20:21:32;;;;;;;52.40;38.80;;;;;;;9.43;80.10;97995.60;226890;1273;24271;-86
2024/03/04 20:26:35;;;;;;;53.70;40.10;;;;;;;9.45;80.33;97994.73;226939;1273;24228;-86
2024/03/04 20:31:37;;;;;;;55.80;40.90;;;;;;;9.48;80.58;98002.80;226847;1273;22525;-86
2024/03/04 20:36:40;;;;;;;57.60;41.60;;;;;;;9.52;80.72;98012.13;226779;1273;22581;-86
2024/03/04 20:41:43;;;;;;;53.50;39.10;;;;;;;9.56;80.69;98010.19;226992;1271;22548;-86
2024/03/04 20:46:46;;;;;;;55.90;40.30;;;;;;;9.60;80.95;98007.80;227000;1273;22538;-84
2024/03/04 20:51:49;;;;;;;60.30;41.90;;;;;;;9.63;81.01;98006.92;226881;1270;22920;-85
2024/03/04 20:56:53;;;;;;;63.10;43.20;;;;;;;9.64;81.05;98001.17;226948;1273;22596;-85
2024/03/04 21:01:55;;;;;;;63.10;44.30;;;;;;;9.64;81.25;98013.74;226838;1271;22554;-85
2024/03/04 21:06:58;;;;;;;60.20;42.50;;;;;;;9.65;81.25;98014.89;226916;1268;22552;-86
2024/03/04 21:12:00;;;;;;;58.30;41.50;;;;;;;9.65;81.43;98015.91;226826;1273;22537;-86
2024/03/04 21:17:03;;;;;;;56.50;40.70;;;;;;;9.65;81.13;98014.81;226907;1268;22559;-86
2024/03/04 21:22:06;;;;;;;59.40;42.00;;;;;;;9.65;81.53;98013.28;226775;1273;22545;-86
2024/03/04 21:27:09;;;;;;;54.70;38.80;;;;;;;9.63;81.56;98011.98;226952;1271;22534;-86
2024/03/04 21:32:12;;;;;;;56.60;39.60;;;;;;;9.61;81.53;98018.64;226895;1273;25262;-85
2024/03/04 21:37:15;;;;;;;54.60;39.00;;;;;;;9.59;81.73;98020.46;226841;1273;22999;-85
2024/03/04 21:42:28;;;;;;;55.80;40.40;;;;;;;9.58;81.77;98021.27;226796;1273;25338;-86
2024/03/04 21:47:31;;;;;;;55.40;40.00;;;;;;;9.56;82.10;98025.68;226884;1271;22541;-86
2024/03/04 21:52:33;;;;;;;51.00;38.20;;;;;;;9.54;81.99;98027.83;226879;1273;22589;-84
2024/03/04 21:57:36;;;;;;;56.30;41.70;;;;;;;9.50;81.81;98028.23;227027;1273;25401;-85
2024/03/04 22:02:38;;;;;;;56.90;39.70;;;;;;;9.45;82.04;98030.95;226953;1266;24225;-88
2024/03/04 22:07:48;;;;;;;56.20;40.60;;;;;;;9.40;82.11;98030.91;226863;1273;22550;-85
2024/03/04 22:12:51;;;;;;;59.50;41.30;;;;;;;9.36;82.15;98031.68;227035;1270;22568;-85
2024/03/04 22:17:53;;;;;;;60.30;41.70;;;;;;;9.32;82.07;98035.57;226882;1271;22550;-85
2024/03/04 22:22:56;;;;;;;61.10;41.80;;;;;;;9.29;82.24;98037.48;226916;1273;24184;-86
2024/03/04 22:27:59;;;;;;;69.10;44.90;;;;;;;9.27;82.38;98040.41;226874;1273;23827;-85
2024/03/04 22:33:03;;;;;;;61.90;39.10;;;;;;;9.21;82.43;98042.73;226808;1265;22593;-85
2024/03/04 22:38:05;;;;;;;83.50;49.10;;;;;;;9.14;82.37;98037.13;227010;1273;22558;-85
2024/03/04 22:43:08;;;;;;;88.20;51.00;;;;;;;9.05;82.49;98039.23;226841;1268;22670;-85
2024/03/04 22:48:11;;;;;;;96.50;49.90;;;;;;;8.94;82.76;98037.68;226847;1273;22535;-85
2024/03/04 22:53:14;;;;;;;103.90;52.20;;;;;;;8.82;82.83;98036.30;226845;1268;22705;-86
2024/03/04 22:58:17;;;;;;;104.20;52.30;;;;;;;8.74;83.12;98043.34;226841;1273;25408;-88
2024/03/04 23:03:21;;;;;;;111.40;54.10;;;;;;;8.65;83.39;98047.94;226853;1268;22542;-86
2024/03/04 23:08:24;;;;;;;108.40;51.70;;;;;;;8.54;83.60;98054.29;226922;1273;22564;-86
2024/03/04 23:13:27;;;;;;;112.60;54.60;;;;;;;8.43;83.58;98057.56;226931;1267;22537;-86
2024/03/04 23:18:31;;;;;;;111.10;53.10;;;;;;;8.34;84.31;98060.33;226776;1273;22537;-86